EW1146 Weather Reports


Display with metric or nautical units.
time (UTC)temp
F
wind
direction
speed
MPH
gust
MPH
rain 1hr
in
rain 24hr
in
rain mn
in
humidity
%
barometer
mb
20230206071834 29 194 0.0 0.0 0.00 0.00 0.00 74 1005.9
20230206070359 30 194 0.0 0.0 0.00 0.00 0.00 74 1006.1
20230206064830 30 194 0.0 3.0 0.00 0.00 0.00 77 1006.3
20230206063336 28 181 2.0 5.0 0.00 0.00 0.00 80 1006.5
20230206061850 28 253 0.0 0.0 0.00 0.00 0.00 80 1006.4
20230206060349 28 250 0.0 4.0 0.00 0.00 0.00 80 1006.4
20230206054829 27 171 1.0 4.0 0.00 0.00 0.00 80 1006.4
20230206053332 27 202 0.0 0.0 0.00 0.00 0.00 80 1006.5
20230206051829 27 202 0.0 0.0 0.00 0.00 0.00 79 1006.7
20230206050334 27 227 0.0 0.0 0.00 0.00 0.00 81 1007.2
20230206044846 27 227 0.0 0.0 0.00 0.00 0.00 80 1007.3
20230206043326 28 227 0.0 0.0 0.00 0.00 0.00 80 1007.5
20230206041832 28 227 0.0 0.0 0.00 0.00 0.00 80 1007.3
20230206040335 28 227 0.0 0.0 0.00 0.00 0.00 81 1007.6
20230206034838 28 227 0.0 0.0 0.00 0.00 0.00 81 1007.6
20230206033346 29 227 0.0 0.0 0.00 0.00 0.00 80 1007.8
20230206031844 29 227 0.0 0.0 0.00 0.00 0.00 79 1007.9
20230206030331 30 227 0.0 0.0 0.00 0.00 0.00 78 1008.0
20230206024849 30 227 0.0 0.0 0.00 0.00 0.00 78 1008.2
20230206023353 31 227 0.0 0.0 0.00 0.00 0.00 77 1008.5
20230206021832 31 227 0.0 0.0 0.00 0.00 0.00 77 1008.6
20230206020357 31 227 0.0 3.0 0.00 0.00 0.00 77 1008.5
20230206014837 32 319 2.0 4.0 0.00 0.00 0.00 75 1008.6
20230206013348 33 339 0.0 0.0 0.00 0.00 0.00 72 1008.7
20230206011826 34 339 0.0 0.0 0.00 0.00 0.00 71 1008.6
20230206010355 35 339 0.0 0.0 0.00 0.00 0.00 69 1008.4
20230206004837 36 339 0.0 2.0 0.00 0.00 0.00 66 1008.3
20230206003403 36 339 0.0 5.0 0.00 0.00 0.00 65 1008.4
20230206001841 37 336 0.0 4.0 0.00 0.00 0.00 63 1008.5
20230206000331 39 337 3.0 6.0 0.00 0.00 0.00 60 1008.2
20230205234849 40 236 4.0 11.0 0.00 0.00 0.00 55 1008.5
20230205233341 41 13 2.0 5.0 0.00 0.00 0.00 53 1008.3
20230205231837 42 13 3.0 5.0 0.00 0.00 0.00 52 1008.7
20230205230330 42 15 2.0 7.0 0.00 0.00 0.00 52 1008.7
20230205224842 42 13 1.0 5.0 0.00 0.00 0.00 50 1008.9
20230205223353 43 21 6.0 8.0 0.00 0.00 0.00 51 1008.9
20230205221824 43 355 3.0 7.0 0.00 0.00 0.00 50 1009.5
20230205220335 43 26 2.0 6.0 0.00 0.00 0.00 49 1009.6
20230205214829 43 26 5.0 8.0 0.00 0.00 0.00 51 1009.9
20230205213325 43 13 0.0 6.0 0.00 0.00 0.00 49 1010.1
20230205211848 43 355 1.0 6.0 0.00 0.00 0.00 50 1010.3
20230205210401 42 344 2.0 7.0 0.00 0.00 0.00 51 1010.6
20230205204848 43 17 2.0 7.0 0.00 0.00 0.00 51 1010.7
20230205203331 43 5 1.0 5.0 0.00 0.00 0.00 50 1011.2
20230205201834 42 13 2.0 5.0 0.00 0.00 0.00 49 1011.6
20230205200337 43 36 3.0 8.0 0.00 0.00 0.00 47 1012.0
20230205194833 43 22 2.0 7.0 0.00 0.00 0.00 48 1012.4
20230205193341 42 360 2.0 7.0 0.00 0.00 0.00 49 1013.0
20230205191855 42 34 2.0 5.0 0.00 0.00 0.00 50 1013.4
20230205190334 42 337 2.0 5.0 0.00 0.00 0.00 51 1014.0
20230205184832 41 322 4.0 8.0 0.00 0.00 0.00 51 1014.7
20230205183331 40 335 3.0 7.0 0.00 0.00 0.00 52 1014.6
20230205181829 39 319 3.0 8.0 0.00 0.00 0.00 55 1015.3
20230205180332 39 5 2.0 4.0 0.00 0.00 0.00 55 1015.6
20230205174826 39 9 1.0 5.0 0.00 0.00 0.00 57 1015.7
20230205173332 38 10 1.0 5.0 0.00 0.00 0.00 58 1016.2
20230205171847 37 360 1.0 4.0 0.00 0.00 0.00 59 1016.1
20230205170348 36 19 0.0 1.0 0.00 0.00 0.00 62 1016.1
20230205164825 36 19 0.0 2.0 0.00 0.00 0.00 62 1016.2
20230205163345 35 324 0.0 2.0 0.00 0.00 0.00 64 1016.6
20230205161836 34 325 0.0 0.0 0.00 0.00 0.00 66 1016.7
20230205160324 32 325 0.0 0.0 0.00 0.00 0.00 71 1016.8
20230205154837 31 325 0.0 0.0 0.00 0.00 0.00 77 1016.9
20230205153338 30 325 0.0 2.0 0.00 0.00 0.00 78 1016.9
20230205151837 29 333 2.0 5.0 0.00 0.00 0.00 76 1017.0
20230205150336 28 180 0.0 0.0 0.00 0.00 0.00 77 1016.9
20230205144836 27 180 0.0 0.0 0.00 0.00 0.00 79 1017.0
20230205143359 26 180 0.0 0.0 0.00 0.00 0.00 77 1016.8
20230205141833 26 180 0.0 0.0 0.00 0.00 0.00 77 1016.9
20230205140336 27 180 0.0 0.0 0.00 0.00 0.00 76 1016.9
20230205134851 27 180 0.0 0.0 0.00 0.00 0.00 75 1016.9
20230205133331 28 180 0.0 3.0 0.00 0.00 0.00 76 1016.7
20230205131830 27 180 0.0 0.0 0.00 0.00 0.00 77 1016.7
20230205130331 27 180 0.0 0.0 0.00 0.00 0.00 78 1016.8
20230205124846 26 180 0.0 0.0 0.00 0.00 0.00 77 1016.9
20230205123332 27 180 0.0 0.0 0.00 0.00 0.00 77 1016.9
20230205121827 27 180 0.0 0.0 0.00 0.00 0.00 76 1017.1
20230205120345 28 180 0.0 0.0 0.00 0.00 0.00 75 1017.1
20230205114826 28 180 0.0 0.0 0.00 0.00 0.00 75 1017.2
20230205113346 29 180 0.0 0.0 0.00 0.00 0.00 74 1017.3
20230205111859 29 180 0.0 4.0 0.00 0.00 0.00 73 1017.2
20230205110323 29 324 0.0 0.0 0.00 0.00 0.00 71 1017.3
20230205104837 30 334 0.0 0.0 0.00 0.00 0.00 69 1017.3
20230205103341 31 334 0.0 0.0 0.00 0.00 0.00 67 1017.2
20230205101836 32 334 0.0 0.0 0.00 0.00 0.00 65 1017.1
20230205100336 33 334 0.0 0.0 0.00 0.00 0.00 62 1017.1
20230205094836 34 334 0.0 3.0 0.00 0.00 0.00 58 1017.2
20230205093337 37 334 2.0 7.0 0.00 0.00 0.00 52 1017.2
20230205091831 40 113 0.0 3.0 0.00 0.00 0.00 41 1017.1
20230205090336 41 113 1.0 3.0 0.00 0.00 0.00 39 1017.1
20230205084832 42 113 0.0 2.0 0.00 0.00 0.00 38 1017.2
20230205083337 41 119 0.0 1.0 0.00 0.00 0.00 38 1017.2
20230205081832 42 119 0.0 0.0 0.00 0.00 0.00 40 1017.3
20230205080333 43 119 0.0 1.0 0.00 0.00 0.00 36 1017.3
20230205074830 43 119 0.0 1.0 0.00 0.00 0.00 34 1017.3
20230205073335 43 88 0.0 5.0 0.00 0.00 0.00 38 1017.4